sensor_id;sensor_type;location;lat;lon;timestamp;pressure;altitude;pressure_sealevel;temperature;humidity
78855;BME280;68206;59.956;30.234;2023-03-31T00:01:51;100769.88;;;0.69;65.49
78855;BME280;68206;59.956;30.234;2023-03-31T00:04:20;100770.75;;;0.71;65.41
78855;BME280;68206;59.956;30.234;2023-03-31T00:06:50;100759.47;;;0.72;65.69
78855;BME280;68206;59.956;30.234;2023-03-31T00:09:21;100759.47;;;0.72;65.00
78855;BME280;68206;59.956;30.234;2023-03-31T00:11:50;100761.25;;;0.74;65.57
78855;BME280;68206;59.956;30.234;2023-03-31T00:14:19;100763.88;;;0.74;65.48
78855;BME280;68206;59.956;30.234;2023-03-31T00:16:47;100756.03;;;0.76;65.45
78855;BME280;68206;59.956;30.234;2023-03-31T00:19:15;100759.53;;;0.75;64.89
78855;BME280;68206;59.956;30.234;2023-03-31T00:21:47;100744.72;;;0.75;65.32
78855;BME280;68206;59.956;30.234;2023-03-31T00:24:17;100741.25;;;0.78;65.20
78855;BME280;68206;59.956;30.234;2023-03-31T00:26:47;100745.63;;;0.79;65.14
78855;BME280;68206;59.956;30.234;2023-03-31T00:29:15;100736.94;;;0.81;65.42
78855;BME280;68206;59.956;30.234;2023-03-31T00:31:43;100736.97;;;0.83;65.56
78855;BME280;68206;59.956;30.234;2023-03-31T00:34:11;100736.16;;;0.87;65.10
78855;BME280;68206;59.956;30.234;2023-03-31T00:36:39;100726.56;;;0.89;65.41
78855;BME280;68206;59.956;30.234;2023-03-31T00:39:13;100728.34;;;0.92;65.21
78855;BME280;68206;59.956;30.234;2023-03-31T00:41:41;100725.75;;;0.95;65.12
78855;BME280;68206;59.956;30.234;2023-03-31T00:44:13;100729.25;;;0.94;64.96
78855;BME280;68206;59.956;30.234;2023-03-31T00:46:50;100728.38;;;0.93;65.02
78855;BME280;68206;59.956;30.234;2023-03-31T00:49:24;100736.19;;;0.95;64.96
78855;BME280;68206;59.956;30.234;2023-03-31T00:51:56;100725.75;;;0.95;64.80
78855;BME280;68206;59.956;30.234;2023-03-31T00:54:26;100718.81;;;0.95;64.80
78855;BME280;68206;59.956;30.234;2023-03-31T00:56:56;100721.41;;;0.95;64.68
78855;BME280;68206;59.956;30.234;2023-03-31T00:59:34;100717.09;;;0.97;64.87
78855;BME280;68206;59.956;30.234;2023-03-31T01:02:04;100725.81;;;1.01;64.66
78855;BME280;68206;59.956;30.234;2023-03-31T01:04:35;100719.72;;;1.00;64.43
78855;BME280;68206;59.956;30.234;2023-03-31T01:07:10;100712.75;;;0.98;64.76
78855;BME280;68206;59.956;30.234;2023-03-31T01:09:43;100718.00;;;0.99;64.70
78855;BME280;68206;59.956;30.234;2023-03-31T01:12:15;100705.78;;;1.01;64.89
78855;BME280;68206;59.956;30.234;2023-03-31T01:14:48;100705.84;;;1.04;64.95
78855;BME280;68206;59.956;30.234;2023-03-31T01:17:18;100705.00;;;1.10;64.58
78855;BME280;68206;59.956;30.234;2023-03-31T01:20:01;100706.78;;;1.12;64.64
78855;BME280;68206;59.956;30.234;2023-03-31T01:23:10;100695.41;;;1.07;64.69
78855;BME280;68206;59.956;30.234;2023-03-31T01:28:36;100700.63;;;1.07;64.55
78855;BME280;68206;59.956;30.234;2023-03-31T01:31:32;100693.66;;;1.06;64.45
78855;BME280;68206;59.956;30.234;2023-03-31T01:37:58;100686.66;;;1.02;64.75
78855;BME280;68206;59.956;30.234;2023-03-31T01:40:56;100682.28;;;1.01;64.68
78855;BME280;68206;59.956;30.234;2023-03-31T01:43:29;100668.31;;;0.92;65.09
78855;BME280;68206;59.956;30.234;2023-03-31T01:46:03;100670.94;;;0.93;65.07
78855;BME280;68206;59.956;30.234;2023-03-31T01:48:43;100677.03;;;0.94;65.18
78855;BME280;68206;59.956;30.234;2023-03-31T01:51:18;100670.06;;;0.96;65.16
78855;BME280;68206;59.956;30.234;2023-03-31T01:53:52;100670.97;;;0.99;65.04
78855;BME280;68206;59.956;30.234;2023-03-31T01:56:29;100677.09;;;1.00;65.07
78855;BME280;68206;59.956;30.234;2023-03-31T01:59:00;100663.09;;;0.95;65.36
78855;BME280;68206;59.956;30.234;2023-03-31T02:01:34;100669.19;;;0.95;65.47
78855;BME280;68206;59.956;30.234;2023-03-31T02:04:09;100666.59;;;0.97;65.42
78855;BME280;68206;59.956;30.234;2023-03-31T02:06:44;100663.97;;;0.95;65.37
78855;BME280;68206;59.956;30.234;2023-03-31T02:09:19;100667.44;;;0.91;65.51
78855;BME280;68206;59.956;30.234;2023-03-31T02:11:51;100667.44;;;0.94;65.57
78855;BME280;68206;59.956;30.234;2023-03-31T02:14:25;100664.88;;;0.97;65.83
78855;BME280;68206;59.956;30.234;2023-03-31T02:17:17;100659.63;;;0.96;65.67
78855;BME280;68206;59.956;30.234;2023-03-31T02:19:48;100657.03;;;0.97;65.54
78855;BME280;68206;59.956;30.234;2023-03-31T02:22:20;100657.03;;;1.00;65.58
78855;BME280;68206;59.956;30.234;2023-03-31T02:24:51;100651.78;;;0.96;65.65
78855;BME280;68206;59.956;30.234;2023-03-31T02:27:24;100658.78;;;0.98;65.83
78855;BME280;68206;59.956;30.234;2023-03-31T02:29:54;100655.28;;;0.96;66.00
78855;BME280;68206;59.956;30.234;2023-03-31T02:32:25;100646.53;;;0.94;65.76
78855;BME280;68206;59.956;30.234;2023-03-31T02:34:58;100645.66;;;0.91;65.84
78855;BME280;68206;59.956;30.234;2023-03-31T02:37:27;100646.50;;;0.87;66.05
78855;BME280;68206;59.956;30.234;2023-03-31T02:39:59;100647.38;;;0.87;66.15
78855;BME280;68206;59.956;30.234;2023-03-31T02:42:29;100644.75;;;0.89;66.19
78855;BME280;68206;59.956;30.234;2023-03-31T02:45:01;100650.88;;;0.89;66.11
78855;BME280;68206;59.956;30.234;2023-03-31T02:47:29;100639.50;;;0.82;66.07
78855;BME280;68206;59.956;30.234;2023-03-31T02:49:59;100642.13;;;0.84;66.34
78855;BME280;68206;59.956;30.234;2023-03-31T02:52:41;100638.59;;;0.77;66.48
78855;BME280;68206;59.956;30.234;2023-03-31T02:55:22;100640.34;;;0.81;66.36
78855;BME280;68206;59.956;30.234;2023-03-31T03:01:22;100640.38;;;0.80;66.06
78855;BME280;68206;59.956;30.234;2023-03-31T03:03:59;100642.97;;;0.83;66.01
78855;BME280;68206;59.956;30.234;2023-03-31T03:06:40;100636.94;;;0.89;66.19
78855;BME280;68206;59.956;30.234;2023-03-31T03:09:26;100635.22;;;0.91;65.87
78855;BME280;68206;59.956;30.234;2023-03-31T03:12:06;100630.00;;;0.92;65.29
78855;BME280;68206;59.956;30.234;2023-03-31T03:14:39;100631.72;;;0.89;65.93
78855;BME280;68206;59.956;30.234;2023-03-31T03:17:14;100627.38;;;0.89;65.93
78855;BME280;68206;59.956;30.234;2023-03-31T03:19:50;100619.59;;;0.94;65.40
78855;BME280;68206;59.956;30.234;2023-03-31T03:22:19;100623.09;;;0.97;65.35
78855;BME280;68206;59.956;30.234;2023-03-31T03:24:48;100618.75;;;0.98;65.61
78855;BME280;68206;59.956;30.234;2023-03-31T03:27:16;100617.88;;;0.97;65.72
78855;BME280;68206;59.956;30.234;2023-03-31T03:29:44;100621.34;;;0.98;65.81
78855;BME280;68206;59.956;30.234;2023-03-31T03:32:14;100623.09;;;1.00;65.15
78855;BME280;68206;59.956;30.234;2023-03-31T03:34:43;100622.25;;;1.03;65.47
78855;BME280;68206;59.956;30.234;2023-03-31T03:37:11;100613.53;;;0.99;65.47
78855;BME280;68206;59.956;30.234;2023-03-31T03:39:39;100630.09;;;1.03;65.42
78855;BME280;68206;59.956;30.234;2023-03-31T03:42:07;100617.94;;;1.05;65.55
78855;BME280;68206;59.956;30.234;2023-03-31T03:44:35;100619.69;;;1.06;65.30
78855;BME280;68206;59.956;30.234;2023-03-31T03:47:03;100612.72;;;1.05;65.42
78855;BME280;68206;59.956;30.234;2023-03-31T03:49:33;100610.09;;;1.08;65.11
78855;BME280;68206;59.956;30.234;2023-03-31T03:52:01;100604.84;;;1.06;65.08
78855;BME280;68206;59.956;30.234;2023-03-31T03:54:29;100604.88;;;1.08;65.17
78855;BME280;68206;59.956;30.234;2023-03-31T03:56:57;100611.00;;;1.10;64.98
78855;BME280;68206;59.956;30.234;2023-03-31T03:59:26;100617.06;;;1.09;64.97
78855;BME280;68206;59.956;30.234;2023-03-31T04:01:54;100613.63;;;1.13;64.92
78855;BME280;68206;59.956;30.234;2023-03-31T04:04:22;100611.88;;;1.13;64.88
78855;BME280;68206;59.956;30.234;2023-03-31T04:06:52;100617.09;;;1.10;64.99
78855;BME280;68206;59.956;30.234;2023-03-31T04:09:20;100601.44;;;1.10;65.07
78855;BME280;68206;59.956;30.234;2023-03-31T04:11:48;100609.25;;;1.13;64.95
78855;BME280;68206;59.956;30.234;2023-03-31T04:14:16;100604.94;;;1.17;64.78
78855;BME280;68206;59.956;30.234;2023-03-31T04:16:44;100603.22;;;1.17;65.07
78855;BME280;68206;59.956;30.234;2023-03-31T04:19:14;100604.09;;;1.18;64.81
78855;BME280;68206;59.956;30.234;2023-03-31T04:21:43;100600.59;;;1.20;64.69
78855;BME280;68206;59.956;30.234;2023-03-31T04:24:13;100598.00;;;1.22;64.57
78855;BME280;68206;59.956;30.234;2023-03-31T04:26:47;100601.50;;;1.26;64.76
78855;BME280;68206;59.956;30.234;2023-03-31T04:29:16;100594.56;;;1.28;64.75
78855;BME280;68206;59.956;30.234;2023-03-31T04:31:46;100594.59;;;1.31;64.55
78855;BME280;68206;59.956;30.234;2023-03-31T04:34:16;100590.25;;;1.34;63.95
78855;BME280;68206;59.956;30.234;2023-03-31T04:36:45;100591.13;;;1.35;64.67
78855;BME280;68206;59.956;30.234;2023-03-31T04:39:16;100594.63;;;1.40;64.28
78855;BME280;68206;59.956;30.234;2023-03-31T04:41:50;100586.81;;;1.43;64.10
78855;BME280;68206;59.956;30.234;2023-03-31T04:44:18;100583.31;;;1.44;64.00
78855;BME280;68206;59.956;30.234;2023-03-31T04:46:46;100582.47;;;1.45;63.92
78855;BME280;68206;59.956;30.234;2023-03-31T04:49:14;100581.63;;;1.47;64.08
78855;BME280;68206;59.956;30.234;2023-03-31T04:51:42;100582.50;;;1.54;63.67
78855;BME280;68206;59.956;30.234;2023-03-31T04:54:11;100586.00;;;1.53;63.74
78855;BME280;68206;59.956;30.234;2023-03-31T04:56:40;100579.88;;;1.52;63.94
78855;BME280;68206;59.956;30.234;2023-03-31T04:59:09;100581.63;;;1.56;63.62
78855;BME280;68206;59.956;30.234;2023-03-31T05:01:37;100584.28;;;1.59;63.36
78855;BME280;68206;59.956;30.234;2023-03-31T05:04:05;100579.94;;;1.60;63.60
78855;BME280;68206;59.956;30.234;2023-03-31T05:06:33;100577.31;;;1.63;63.34
78855;BME280;68206;59.956;30.234;2023-03-31T05:09:01;100572.13;;;1.68;63.19
78855;BME280;68206;59.956;30.234;2023-03-31T05:11:29;100566.91;;;1.72;63.16
78855;BME280;68206;59.956;30.234;2023-03-31T05:13:59;100570.41;;;1.77;62.89
78855;BME280;68206;59.956;30.234;2023-03-31T05:16:27;100565.19;;;1.77;63.13
78855;BME280;68206;59.956;30.234;2023-03-31T05:18:55;100554.75;;;1.80;62.88
78855;BME280;68206;59.956;30.234;2023-03-31T05:21:23;100556.53;;;1.87;62.86
78855;BME280;68206;59.956;30.234;2023-03-31T05:23:52;100554.78;;;1.92;62.74
78855;BME280;68206;59.956;30.234;2023-03-31T05:26:20;100552.19;;;1.98;62.39
78855;BME280;68206;59.956;30.234;2023-03-31T05:28:51;100541.72;;;2.08;62.67
78855;BME280;68206;59.956;30.234;2023-03-31T05:31:20;100554.81;;;2.14;61.97
78855;BME280;68206;59.956;30.234;2023-03-31T05:33:49;100548.72;;;2.16;62.00
78855;BME280;68206;59.956;30.234;2023-03-31T05:36:17;100545.22;;;2.14;61.87
78855;BME280;68206;59.956;30.234;2023-03-31T05:38:45;100539.09;;;2.08;62.64
78855;BME280;68206;59.956;30.234;2023-03-31T05:41:14;100545.22;;;2.14;62.43
78855;BME280;68206;59.956;30.234;2023-03-31T05:43:42;100550.47;;;2.20;62.00
78855;BME280;68206;59.956;30.234;2023-03-31T05:46:11;100560.94;;;2.26;62.20
78855;BME280;68206;59.956;30.234;2023-03-31T05:48:41;100569.69;;;2.24;61.79
78855;BME280;68206;59.956;30.234;2023-03-31T05:51:10;100560.09;;;2.29;61.89
78855;BME280;68206;59.956;30.234;2023-03-31T05:53:38;100555.69;;;2.26;61.75
78855;BME280;68206;59.956;30.234;2023-03-31T05:56:07;100559.22;;;2.30;61.72
78855;BME280;68206;59.956;30.234;2023-03-31T05:58:36;100551.34;;;2.39;61.28
78855;BME280;68206;59.956;30.234;2023-03-31T06:01:06;100553.97;;;2.45;61.09
78855;BME280;68206;59.956;30.234;2023-03-31T06:03:38;100547.00;;;2.53;61.32
78855;BME280;68206;59.956;30.234;2023-03-31T06:06:08;100547.88;;;2.58;61.23
78855;BME280;68206;59.956;30.234;2023-03-31T06:08:39;100547.88;;;2.58;61.09
78855;BME280;68206;59.956;30.234;2023-03-31T06:11:09;100553.13;;;2.61;61.10
78855;BME280;68206;59.956;30.234;2023-03-31T06:13:38;100539.16;;;2.68;60.65
78855;BME280;68206;59.956;30.234;2023-03-31T06:16:08;100529.53;;;2.78;60.23
78855;BME280;68206;59.956;30.234;2023-03-31T06:18:37;100533.91;;;2.87;60.33
78855;BME280;68206;59.956;30.234;2023-03-31T06:21:05;100530.41;;;2.91;60.04
78855;BME280;68206;59.956;30.234;2023-03-31T06:23:36;100533.03;;;2.98;60.03
78855;BME280;68206;59.956;30.234;2023-03-31T06:26:05;100530.38;;;3.01;60.04
78855;BME280;68206;59.956;30.234;2023-03-31T06:28:34;100540.84;;;3.07;59.71
78855;BME280;68206;59.956;30.234;2023-03-31T06:31:04;100542.56;;;3.13;59.18
78855;BME280;68206;59.956;30.234;2023-03-31T06:33:34;100532.97;;;3.24;58.80
78855;BME280;68206;59.956;30.234;2023-03-31T06:36:03;100540.78;;;3.27;58.27
78855;BME280;68206;59.956;30.234;2023-03-31T06:38:33;100535.53;;;3.32;58.82
78855;BME280;68206;59.956;30.234;2023-03-31T06:41:03;100525.91;;;3.32;58.34
78855;BME280;68206;59.956;30.234;2023-03-31T06:43:33;100520.69;;;3.35;58.30
78855;BME280;68206;59.956;30.234;2023-03-31T06:46:02;100514.50;;;3.44;58.63
78855;BME280;68206;59.956;30.234;2023-03-31T06:48:31;100513.66;;;3.49;57.76
78855;BME280;68206;59.956;30.234;2023-03-31T06:51:02;100515.28;;;3.73;57.42
78855;BME280;68206;59.956;30.234;2023-03-31T06:53:40;100506.44;;;3.92;57.22
78855;BME280;68206;59.956;30.234;2023-03-31T06:56:15;100509.66;;;4.31;55.56
78855;BME280;68206;59.956;30.234;2023-03-31T06:58:43;100515.66;;;4.46;55.71
78855;BME280;68206;59.956;30.234;2023-03-31T07:01:16;100508.66;;;4.45;55.49
78855;BME280;68206;59.956;30.234;2023-03-31T07:03:50;100505.81;;;4.73;54.50
78855;BME280;68206;59.956;30.234;2023-03-31T07:06:20;100508.44;;;4.70;54.54
78855;BME280;68206;59.956;30.234;2023-03-31T07:09:09;100511.13;;;4.65;54.69
78855;BME280;68206;59.956;30.234;2023-03-31T07:11:43;100505.84;;;4.68;53.85
78855;BME280;68206;59.956;30.234;2023-03-31T07:14:25;100510.25;;;4.68;54.27
78855;BME280;68206;59.956;30.234;2023-03-31T07:17:01;100505.81;;;4.71;54.05
78855;BME280;68206;59.956;30.234;2023-03-31T07:19:30;100505.03;;;4.62;54.34
78855;BME280;68206;59.956;30.234;2023-03-31T07:22:05;100507.66;;;4.62;54.05
78855;BME280;68206;59.956;30.234;2023-03-31T07:24:46;100499.69;;;4.69;53.84
78855;BME280;68206;59.956;30.234;2023-03-31T07:27:16;100490.88;;;4.75;53.31
78855;BME280;68206;59.956;30.234;2023-03-31T07:29:45;100487.66;;;5.31;52.08
78855;BME280;68206;59.956;30.234;2023-03-31T07:32:13;100492.16;;;5.21;52.21
78855;BME280;68206;59.956;30.234;2023-03-31T07:34:42;100494.13;;;5.03;52.66
78855;BME280;68206;59.956;30.234;2023-03-31T07:37:10;100501.25;;;4.90;52.91
78855;BME280;68206;59.956;30.234;2023-03-31T07:39:38;100497.09;;;4.68;53.76
78855;BME280;68206;59.956;30.234;2023-03-31T07:42:07;100497.09;;;4.68;53.64
78855;BME280;68206;59.956;30.234;2023-03-31T07:44:37;100491.88;;;4.63;54.31
78855;BME280;68206;59.956;30.234;2023-03-31T07:47:06;100496.00;;;4.88;53.52
78855;BME280;68206;59.956;30.234;2023-03-31T07:49:34;100491.50;;;5.00;53.70
78855;BME280;68206;59.956;30.234;2023-03-31T07:52:03;100493.03;;;5.19;53.23
78855;BME280;68206;59.956;30.234;2023-03-31T07:54:31;100486.75;;;5.35;52.25
78855;BME280;68206;59.956;30.234;2023-03-31T07:56:59;100478.47;;;5.64;51.71
78855;BME280;68206;59.956;30.234;2023-03-31T07:59:30;100485.00;;;6.00;50.58
78855;BME280;68206;59.956;30.234;2023-03-31T08:01:59;100486.31;;;6.30;49.41
78855;BME280;68206;59.956;30.234;2023-03-31T08:04:28;100485.34;;;6.86;48.77
78855;BME280;68206;59.956;30.234;2023-03-31T08:06:56;100476.13;;;7.10;48.60
78855;BME280;68206;59.956;30.234;2023-03-31T08:09:25;100484.56;;;7.25;47.13
78855;BME280;68206;59.956;30.234;2023-03-31T08:11:53;100475.13;;;7.58;47.11
78855;BME280;68206;59.956;30.234;2023-03-31T08:14:21;100476.44;;;7.79;45.89
78855;BME280;68206;59.956;30.234;2023-03-31T08:17:08;100476.28;;;7.85;45.75
78855;BME280;68206;59.956;30.234;2023-03-31T08:19:36;100471.66;;;7.95;46.21
78855;BME280;68206;59.956;30.234;2023-03-31T08:22:04;100472.69;;;7.88;45.76
78855;BME280;68206;59.956;30.234;2023-03-31T08:24:32;100470.72;;;8.36;45.22
78855;BME280;68206;59.956;30.234;2023-03-31T08:27:01;100473.56;;;8.62;45.39
78855;BME280;68206;59.956;30.234;2023-03-31T08:29:29;100474.44;;;8.63;43.82
78855;BME280;68206;59.956;30.234;2023-03-31T08:31:57;100472.94;;;8.53;44.48
78855;BME280;68206;59.956;30.234;2023-03-31T08:34:26;100469.72;;;8.41;44.95
78855;BME280;68206;59.956;30.234;2023-03-31T08:36:54;100478.84;;;8.27;44.74
78855;BME280;68206;59.956;30.234;2023-03-31T08:39:23;100463.44;;;8.08;45.31
78855;BME280;68206;59.956;30.234;2023-03-31T08:41:55;100464.50;;;8.00;44.85
78855;BME280;68206;59.956;30.234;2023-03-31T08:44:29;100467.81;;;7.71;45.02
78855;BME280;68206;59.956;30.234;2023-03-31T08:47:01;100468.03;;;7.62;45.49
78855;BME280;68206;59.956;30.234;2023-03-31T08:49:37;100470.19;;;7.43;45.75
78855;BME280;68206;59.956;30.234;2023-03-31T08:52:10;100475.97;;;7.17;46.41
78855;BME280;68206;59.956;30.234;2023-03-31T08:54:39;100479.75;;;7.04;46.58
78855;BME280;68206;59.956;30.234;2023-03-31T08:57:13;100478.22;;;6.93;48.13
78855;BME280;68206;59.956;30.234;2023-03-31T08:59:42;100482.28;;;6.61;48.13
78855;BME280;68206;59.956;30.234;2023-03-31T09:02:18;100476.31;;;6.50;48.68
78855;BME280;68206;59.956;30.234;2023-03-31T09:05:14;100473.84;;;6.39;48.42
78855;BME280;68206;59.956;30.234;2023-03-31T09:07:50;100470.25;;;6.45;48.67
78855;BME280;68206;59.956;30.234;2023-03-31T09:10:33;100470.44;;;6.33;49.40
78855;BME280;68206;59.956;30.234;2023-03-31T09:13:09;100473.97;;;6.32;48.86
78855;BME280;68206;59.956;30.234;2023-03-31T09:15:48;100466.94;;;6.32;49.43
78855;BME280;68206;59.956;30.234;2023-03-31T09:18:22;100464.41;;;6.28;49.97
78855;BME280;68206;59.956;30.234;2023-03-31T09:20:58;100466.31;;;6.18;50.43
78855;BME280;68206;59.956;30.234;2023-03-31T09:23:31;100473.53;;;6.05;50.34
78855;BME280;68206;59.956;30.234;2023-03-31T09:26:03;100464.59;;;6.16;50.01
78855;BME280;68206;59.956;30.234;2023-03-31T09:28:36;100450.31;;;6.30;49.69
78855;BME280;68206;59.956;30.234;2023-03-31T09:31:12;100470.34;;;6.39;50.02
78855;BME280;68206;59.956;30.234;2023-03-31T09:33:44;100448.47;;;6.37;49.33
78855;BME280;68206;59.956;30.234;2023-03-31T09:36:16;100466.13;;;6.30;49.99
78855;BME280;68206;59.956;30.234;2023-03-31T09:38:45;100461.63;;;6.37;50.08
78855;BME280;68206;59.956;30.234;2023-03-31T09:41:14;100461.34;;;6.52;49.65
78855;BME280;68206;59.956;30.234;2023-03-31T09:43:43;100458.50;;;6.64;49.26
78855;BME280;68206;59.956;30.234;2023-03-31T09:46:16;100440.78;;;6.74;48.79
78855;BME280;68206;59.956;30.234;2023-03-31T09:48:52;100455.47;;;6.87;48.09
78855;BME280;68206;59.956;30.234;2023-03-31T09:51:27;100451.97;;;6.85;49.04
78855;BME280;68206;59.956;30.234;2023-03-31T09:54:00;100448.44;;;6.86;48.77
78855;BME280;68206;59.956;30.234;2023-03-31T09:56:43;100452.84;;;6.85;49.29
78855;BME280;68206;59.956;30.234;2023-03-31T09:59:14;100462.78;;;6.71;48.68
78855;BME280;68206;59.956;30.234;2023-03-31T10:01:45;100451.25;;;6.75;49.77
78855;BME280;68206;59.956;30.234;2023-03-31T10:04:19;100451.03;;;6.87;49.88
78855;BME280;68206;59.956;30.234;2023-03-31T10:06:50;100455.16;;;7.02;49.35
78855;BME280;68206;59.956;30.234;2023-03-31T10:09:20;100455.38;;;6.92;48.77
78855;BME280;68206;59.956;30.234;2023-03-31T10:11:55;100451.09;;;6.84;49.29
78855;BME280;68206;59.956;30.234;2023-03-31T10:14:27;100451.09;;;6.84;48.96
78855;BME280;68206;59.956;30.234;2023-03-31T10:17:04;100456.63;;;6.71;49.74
78855;BME280;68206;59.956;30.234;2023-03-31T10:19:34;100447.47;;;6.92;49.56
78855;BME280;68206;59.956;30.234;2023-03-31T10:22:12;100441.69;;;7.17;48.59
78855;BME280;68206;59.956;30.234;2023-03-31T10:24:43;100437.84;;;7.32;48.09
78855;BME280;68206;59.956;30.234;2023-03-31T10:27:20;100442.31;;;7.30;48.24
78855;BME280;68206;59.956;30.234;2023-03-31T10:29:51;100441.72;;;7.14;49.00
78855;BME280;68206;59.956;30.234;2023-03-31T10:32:23;100439.22;;;7.08;48.46
78855;BME280;68206;59.956;30.234;2023-03-31T10:34:55;100442.06;;;6.98;49.33
78855;BME280;68206;59.956;30.234;2023-03-31T10:37:26;100442.19;;;6.92;48.79
78855;BME280;68206;59.956;30.234;2023-03-31T10:39:56;100444.00;;;6.88;48.88
78855;BME280;68206;59.956;30.234;2023-03-31T10:42:26;100443.88;;;6.94;49.33
78855;BME280;68206;59.956;30.234;2023-03-31T10:45:17;100435.72;;;7.08;49.09
78855;BME280;68206;59.956;30.234;2023-03-31T10:48:03;100432.91;;;7.17;48.23
78855;BME280;68206;59.956;30.234;2023-03-31T10:50:34;100429.31;;;7.19;48.02
78855;BME280;68206;59.956;30.234;2023-03-31T10:53:05;100424.00;;;7.21;48.92
78855;BME280;68206;59.956;30.234;2023-03-31T10:55:38;100416.69;;;7.35;47.86
78855;BME280;68206;59.956;30.234;2023-03-31T10:58:18;100415.59;;;7.45;48.03
78855;BME280;68206;59.956;30.234;2023-03-31T11:00:58;100411.13;;;7.49;47.67
78855;BME280;68206;59.956;30.234;2023-03-31T11:03:44;100406.59;;;7.55;47.96
78855;BME280;68206;59.956;30.234;2023-03-31T11:06:21;100401.09;;;7.64;47.35
78855;BME280;68206;59.956;30.234;2023-03-31T11:09:04;100402.94;;;7.61;47.36
78855;BME280;68206;59.956;30.234;2023-03-31T11:11:51;100399.63;;;7.51;47.43
78855;BME280;68206;59.956;30.234;2023-03-31T11:14:30;100393.75;;;7.37;47.18
78855;BME280;68206;59.956;30.234;2023-03-31T11:17:11;100387.94;;;7.23;48.31
78855;BME280;68206;59.956;30.234;2023-03-31T11:19:54;100393.28;;;7.18;47.53
78855;BME280;68206;59.956;30.234;2023-03-31T11:22:30;100395.28;;;7.07;48.67
78855;BME280;68206;59.956;30.234;2023-03-31T11:25:21;100396.13;;;7.09;48.84
78855;BME280;68206;59.956;30.234;2023-03-31T11:28:10;100395.38;;;7.03;48.37
78855;BME280;68206;59.956;30.234;2023-03-31T11:30:48;100398.19;;;6.94;49.42
78855;BME280;68206;59.956;30.234;2023-03-31T11:33:34;100401.63;;;6.99;49.73
78855;BME280;68206;59.956;30.234;2023-03-31T11:36:15;100404.19;;;7.02;49.26
78855;BME280;68206;59.956;30.234;2023-03-31T11:38:58;100393.63;;;7.03;48.71
78855;BME280;68206;59.956;30.234;2023-03-31T11:41:34;100392.69;;;7.06;48.72
78855;BME280;68206;59.956;30.234;2023-03-31T11:44:06;100397.91;;;7.09;49.71
78855;BME280;68206;59.956;30.234;2023-03-31T11:46:46;100390.66;;;7.18;48.88
78855;BME280;68206;59.956;30.234;2023-03-31T11:49:18;100387.94;;;7.23;49.17
78855;BME280;68206;59.956;30.234;2023-03-31T11:51:50;100382.66;;;7.23;49.37
78855;BME280;68206;59.956;30.234;2023-03-31T11:54:26;100380.72;;;7.31;49.67
78855;BME280;68206;59.956;30.234;2023-03-31T11:57:01;100384.28;;;7.30;49.60
78855;BME280;68206;59.956;30.234;2023-03-31T11:59:31;100382.72;;;7.20;49.27
78855;BME280;68206;59.956;30.234;2023-03-31T12:02:08;100383.56;;;7.22;49.61
78855;BME280;68206;59.956;30.234;2023-03-31T12:04:40;100380.94;;;7.20;49.44
78855;BME280;68206;59.956;30.234;2023-03-31T12:07:21;100385.47;;;7.14;49.73
78855;BME280;68206;59.956;30.234;2023-03-31T12:09:54;100381.09;;;7.13;49.26
78855;BME280;68206;59.956;30.234;2023-03-31T12:12:32;100393.50;;;7.09;50.38
78855;BME280;68206;59.956;30.234;2023-03-31T12:15:07;100390.91;;;7.06;50.70
78855;BME280;68206;59.956;30.234;2023-03-31T12:17:42;100384.06;;;6.98;50.42
78855;BME280;68206;59.956;30.234;2023-03-31T12:20:18;100403.31;;;7.01;50.12
78855;BME280;68206;59.956;30.234;2023-03-31T12:22:48;100402.56;;;6.96;49.89
78855;BME280;68206;59.956;30.234;2023-03-31T12:25:19;100402.03;;;6.77;50.90
78855;BME280;68206;59.956;30.234;2023-03-31T12:27:53;100410.97;;;6.70;50.92
78855;BME280;68206;59.956;30.234;2023-03-31T12:30:29;100411.47;;;6.43;51.55
78855;BME280;68206;59.956;30.234;2023-03-31T12:33:02;100393.94;;;6.42;52.32
78855;BME280;68206;59.956;30.234;2023-03-31T12:35:37;100404.38;;;6.46;52.45
78855;BME280;68206;59.956;30.234;2023-03-31T12:38:18;100403.53;;;6.44;52.45
78855;BME280;68206;59.956;30.234;2023-03-31T12:40:56;100395.13;;;6.24;52.79
78855;BME280;68206;59.956;30.234;2023-03-31T12:43:53;100394.28;;;6.21;52.57
78855;BME280;68206;59.956;30.234;2023-03-31T12:46:36;100393.59;;;6.11;53.20
78855;BME280;68206;59.956;30.234;2023-03-31T12:49:20;100392.84;;;6.03;53.58
78855;BME280;68206;59.956;30.234;2023-03-31T12:51:58;100392.13;;;5.93;53.93
78855;BME280;68206;59.956;30.234;2023-03-31T12:57:22;100393.38;;;5.68;54.42
78855;BME280;68206;59.956;30.234;2023-03-31T13:00:17;100386.41;;;5.62;54.85
78855;BME280;68206;59.956;30.234;2023-03-31T13:02:47;100386.53;;;5.55;54.75
78855;BME280;68206;59.956;30.234;2023-03-31T13:05:44;100382.34;;;5.40;55.34
78855;BME280;68206;59.956;30.234;2023-03-31T13:11:18;100382.47;;;5.33;56.11
78855;BME280;68206;59.956;30.234;2023-03-31T13:13:57;100376.31;;;5.32;56.05
78855;BME280;68206;59.956;30.234;2023-03-31T13:16:28;100379.00;;;5.31;56.24
78855;BME280;68206;59.956;30.234;2023-03-31T13:19:00;100373.78;;;5.27;56.75
78855;BME280;68206;59.956;30.234;2023-03-31T13:21:28;100373.84;;;5.21;57.08
78855;BME280;68206;59.956;30.234;2023-03-31T13:23:59;100372.16;;;5.17;56.54
78855;BME280;68206;59.956;30.234;2023-03-31T13:26:45;100374.91;;;5.08;57.56
78855;BME280;68206;59.956;30.234;2023-03-31T13:29:22;100373.13;;;5.09;57.34
78855;BME280;68206;59.956;30.234;2023-03-31T13:32:18;100369.69;;;5.05;57.24
78855;BME280;68206;59.956;30.234;2023-03-31T13:34:57;100367.09;;;5.01;57.25
78855;BME280;68206;59.956;30.234;2023-03-31T13:37:49;100366.22;;;5.00;57.08